sensor_id;sensor_type;location;lat;lon;timestamp;temperature;humidity
36322;DHT22;23564;48.290;11.460;2023-06-10T00:00:12;16.60;1.00
36322;DHT22;23564;48.290;11.460;2023-06-10T00:02:40;16.60;1.00
36322;DHT22;23564;48.290;11.460;2023-06-10T00:05:06;16.60;1.00
36322;DHT22;23564;48.290;11.460;2023-06-10T00:07:33;16.60;99.90
36322;DHT22;23564;48.290;11.460;2023-06-10T00:09:59;16.50;1.00
36322;DHT22;23564;48.290;11.460;2023-06-10T00:12:27;16.50;99.90
36322;DHT22;23564;48.290;11.460;2023-06-10T00:14:54;16.50;91.40
36322;DHT22;23564;48.290;11.460;2023-06-10T00:17:20;16.50;99.90
36322;DHT22;23564;48.290;11.460;2023-06-10T00:19:45;16.50;99.90
36322;DHT22;23564;48.290;11.460;2023-06-10T00:22:12;16.50;99.90
36322;DHT22;23564;48.290;11.460;2023-06-10T00:24:37;16.40;99.90
36322;DHT22;23564;48.290;11.460;2023-06-10T00:27:04;16.40;99.90
36322;DHT22;23564;48.290;11.460;2023-06-10T00:29:30;16.50;99.90
36322;DHT22;23564;48.290;11.460;2023-06-10T00:31:56;16.40;99.90
36322;DHT22;23564;48.290;11.460;2023-06-10T00:34:23;16.40;99.90
36322;DHT22;23564;48.290;11.460;2023-06-10T00:36:49;16.30;99.90
36322;DHT22;23564;48.290;11.460;2023-06-10T00:39:14;16.30;1.00
36322;DHT22;23564;48.290;11.460;2023-06-10T00:41:40;16.30;24.70
36322;DHT22;23564;48.290;11.460;2023-06-10T00:44:06;16.20;85.40
36322;DHT22;23564;48.290;11.460;2023-06-10T00:46:32;16.10;70.30
36322;DHT22;23564;48.290;11.460;2023-06-10T00:48:58;16.10;99.90
36322;DHT22;23564;48.290;11.460;2023-06-10T00:51:25;16.10;99.90
36322;DHT22;23564;48.290;11.460;2023-06-10T00:53:52;16.00;99.90
36322;DHT22;23564;48.290;11.460;2023-06-10T00:56:18;16.00;99.90
36322;DHT22;23564;48.290;11.460;2023-06-10T00:58:44;15.90;99.90
36322;DHT22;23564;48.290;11.460;2023-06-10T01:01:10;15.90;1.00
36322;DHT22;23564;48.290;11.460;2023-06-10T01:03:37;15.90;1.00
36322;DHT22;23564;48.290;11.460;2023-06-10T01:06:25;15.80;1.00
36322;DHT22;23564;48.290;11.460;2023-06-10T01:08:58;15.80;1.00
36322;DHT22;23564;48.290;11.460;2023-06-10T01:11:41;15.80;1.00
36322;DHT22;23564;48.290;11.460;2023-06-10T01:14:09;15.70;13.80
36322;DHT22;23564;48.290;11.460;2023-06-10T01:16:35;15.70;92.20
36322;DHT22;23564;48.290;11.460;2023-06-10T01:19:02;15.70;91.60
36322;DHT22;23564;48.290;11.460;2023-06-10T01:21:28;15.70;99.90
36322;DHT22;23564;48.290;11.460;2023-06-10T01:23:55;15.60;99.90
36322;DHT22;23564;48.290;11.460;2023-06-10T01:26:25;15.60;99.90
36322;DHT22;23564;48.290;11.460;2023-06-10T01:29:19;15.60;99.90
36322;DHT22;23564;48.290;11.460;2023-06-10T01:31:48;15.50;99.90
36322;DHT22;23564;48.290;11.460;2023-06-10T01:34:18;15.50;99.90
36322;DHT22;23564;48.290;11.460;2023-06-10T01:36:46;15.50;99.90
36322;DHT22;23564;48.290;11.460;2023-06-10T01:39:14;15.40;99.90
36322;DHT22;23564;48.290;11.460;2023-06-10T01:41:40;15.40;99.90
36322;DHT22;23564;48.290;11.460;2023-06-10T01:44:06;15.40;99.90
36322;DHT22;23564;48.290;11.460;2023-06-10T01:46:31;15.40;99.90
36322;DHT22;23564;48.290;11.460;2023-06-10T01:48:57;15.40;99.90
36322;DHT22;23564;48.290;11.460;2023-06-10T01:51:22;15.40;99.90
36322;DHT22;23564;48.290;11.460;2023-06-10T01:53:48;15.40;99.90
36322;DHT22;23564;48.290;11.460;2023-06-10T01:56:14;15.30;99.90
36322;DHT22;23564;48.290;11.460;2023-06-10T01:58:43;15.30;99.90
36322;DHT22;23564;48.290;11.460;2023-06-10T02:01:09;15.40;99.90
36322;DHT22;23564;48.290;11.460;2023-06-10T02:03:35;15.40;99.90
36322;DHT22;23564;48.290;11.460;2023-06-10T02:06:00;15.40;99.90
36322;DHT22;23564;48.290;11.460;2023-06-10T02:08:26;15.40;99.90
36322;DHT22;23564;48.290;11.460;2023-06-10T02:10:53;15.40;99.90
36322;DHT22;23564;48.290;11.460;2023-06-10T02:13:19;15.40;99.90
36322;DHT22;23564;48.290;11.460;2023-06-10T02:15:44;15.30;99.90
36322;DHT22;23564;48.290;11.460;2023-06-10T02:18:10;15.30;99.90
36322;DHT22;23564;48.290;11.460;2023-06-10T02:20:40;15.20;99.90
36322;DHT22;23564;48.290;11.460;2023-06-10T02:23:05;15.20;99.90
36322;DHT22;23564;48.290;11.460;2023-06-10T02:25:31;15.10;99.90
36322;DHT22;23564;48.290;11.460;2023-06-10T02:27:56;15.10;99.90
36322;DHT22;23564;48.290;11.460;2023-06-10T02:30:22;15.10;99.90
36322;DHT22;23564;48.290;11.460;2023-06-10T02:32:48;15.00;99.90
36322;DHT22;23564;48.290;11.460;2023-06-10T02:35:14;15.00;99.90
36322;DHT22;23564;48.290;11.460;2023-06-10T02:37:40;15.00;99.90
36322;DHT22;23564;48.290;11.460;2023-06-10T02:40:08;14.90;99.90
36322;DHT22;23564;48.290;11.460;2023-06-10T02:42:34;14.90;99.90
36322;DHT22;23564;48.290;11.460;2023-06-10T02:44:59;14.90;99.90
36322;DHT22;23564;48.290;11.460;2023-06-10T02:47:26;14.90;99.90
36322;DHT22;23564;48.290;11.460;2023-06-10T02:49:51;14.80;99.90
36322;DHT22;23564;48.290;11.460;2023-06-10T02:52:17;14.70;99.90
36322;DHT22;23564;48.290;11.460;2023-06-10T02:54:42;14.70;99.90
36322;DHT22;23564;48.290;11.460;2023-06-10T02:57:08;14.70;99.90
36322;DHT22;23564;48.290;11.460;2023-06-10T02:59:35;14.70;99.90
36322;DHT22;23564;48.290;11.460;2023-06-10T03:02:00;14.70;99.90
36322;DHT22;23564;48.290;11.460;2023-06-10T03:04:26;14.70;99.90
36322;DHT22;23564;48.290;11.460;2023-06-10T03:06:54;14.60;99.90
36322;DHT22;23564;48.290;11.460;2023-06-10T03:09:20;14.60;99.90
36322;DHT22;23564;48.290;11.460;2023-06-10T03:11:46;14.60;99.90
36322;DHT22;23564;48.290;11.460;2023-06-10T03:14:11;14.40;99.90
36322;DHT22;23564;48.290;11.460;2023-06-10T03:16:37;14.40;99.90
36322;DHT22;23564;48.290;11.460;2023-06-10T03:19:06;14.30;99.90
36322;DHT22;23564;48.290;11.460;2023-06-10T03:21:31;14.30;99.90
36322;DHT22;23564;48.290;11.460;2023-06-10T03:23:57;14.30;99.90
36322;DHT22;23564;48.290;11.460;2023-06-10T03:26:22;14.20;99.90
36322;DHT22;23564;48.290;11.460;2023-06-10T03:28:48;14.20;99.90
36322;DHT22;23564;48.290;11.460;2023-06-10T03:31:14;14.20;1.00
36322;DHT22;23564;48.290;11.460;2023-06-10T03:33:42;14.20;1.00
36322;DHT22;23564;48.290;11.460;2023-06-10T03:36:07;14.30;1.00
36322;DHT22;23564;48.290;11.460;2023-06-10T03:38:33;14.30;1.00
36322;DHT22;23564;48.290;11.460;2023-06-10T03:40:58;14.40;1.00
36322;DHT22;23564;48.290;11.460;2023-06-10T03:43:24;14.40;99.90
36322;DHT22;23564;48.290;11.460;2023-06-10T03:45:50;14.40;99.90
36322;DHT22;23564;48.290;11.460;2023-06-10T03:48:16;14.40;99.90
36322;DHT22;23564;48.290;11.460;2023-06-10T03:50:42;14.50;1.00
36322;DHT22;23564;48.290;11.460;2023-06-10T03:53:07;14.50;1.00
36322;DHT22;23564;48.290;11.460;2023-06-10T03:55:33;14.50;1.00
36322;DHT22;23564;48.290;11.460;2023-06-10T03:57:58;14.60;1.00
36322;DHT22;23564;48.290;11.460;2023-06-10T04:00:24;14.60;1.00
36322;DHT22;23564;48.290;11.460;2023-06-10T04:02:50;14.70;1.00
36322;DHT22;23564;48.290;11.460;2023-06-10T04:05:18;14.80;1.00
36322;DHT22;23564;48.290;11.460;2023-06-10T04:07:45;14.80;1.00
36322;DHT22;23564;48.290;11.460;2023-06-10T04:10:11;14.90;1.00
36322;DHT22;23564;48.290;11.460;2023-06-10T04:12:37;15.00;1.00
36322;DHT22;23564;48.290;11.460;2023-06-10T04:15:04;15.10;1.00
36322;DHT22;23564;48.290;11.460;2023-06-10T04:17:30;15.10;1.00
36322;DHT22;23564;48.290;11.460;2023-06-10T04:19:55;15.20;1.00
36322;DHT22;23564;48.290;11.460;2023-06-10T04:22:21;15.30;1.00
36322;DHT22;23564;48.290;11.460;2023-06-10T04:24:48;15.40;1.00
36322;DHT22;23564;48.290;11.460;2023-06-10T04:27:13;15.40;1.00
36322;DHT22;23564;48.290;11.460;2023-06-10T04:29:39;15.50;99.90
36322;DHT22;23564;48.290;11.460;2023-06-10T04:32:05;15.60;99.90
36322;DHT22;23564;48.290;11.460;2023-06-10T04:34:33;15.70;1.00
36322;DHT22;23564;48.290;11.460;2023-06-10T04:36:59;15.80;99.90
36322;DHT22;23564;48.290;11.460;2023-06-10T04:39:24;15.90;1.00
36322;DHT22;23564;48.290;11.460;2023-06-10T04:41:50;15.90;99.90
36322;DHT22;23564;48.290;11.460;2023-06-10T04:44:15;16.00;99.90
36322;DHT22;23564;48.290;11.460;2023-06-10T04:46:41;16.00;99.90
36322;DHT22;23564;48.290;11.460;2023-06-10T04:49:06;16.10;99.90
36322;DHT22;23564;48.290;11.460;2023-06-10T04:51:32;16.10;99.90
36322;DHT22;23564;48.290;11.460;2023-06-10T04:53:58;16.20;99.90
36322;DHT22;23564;48.290;11.460;2023-06-10T04:56:27;16.20;99.90
36322;DHT22;23564;48.290;11.460;2023-06-10T04:58:54;16.20;99.90
36322;DHT22;23564;48.290;11.460;2023-06-10T05:01:19;16.20;99.90
36322;DHT22;23564;48.290;11.460;2023-06-10T05:03:45;16.30;99.90
36322;DHT22;23564;48.290;11.460;2023-06-10T05:06:10;16.40;99.90
36322;DHT22;23564;48.290;11.460;2023-06-10T05:08:36;16.40;99.90
36322;DHT22;23564;48.290;11.460;2023-06-10T05:11:01;16.40;99.90
36322;DHT22;23564;48.290;11.460;2023-06-10T05:13:27;16.50;99.90
36322;DHT22;23564;48.290;11.460;2023-06-10T05:15:52;16.50;99.90
36322;DHT22;23564;48.290;11.460;2023-06-10T05:18:18;16.60;99.90
36322;DHT22;23564;48.290;11.460;2023-06-10T05:20:44;16.70;99.90
36322;DHT22;23564;48.290;11.460;2023-06-10T05:23:09;16.80;99.90
36322;DHT22;23564;48.290;11.460;2023-06-10T05:25:35;17.00;99.90
36322;DHT22;23564;48.290;11.460;2023-06-10T05:28:01;17.20;99.90
36322;DHT22;23564;48.290;11.460;2023-06-10T05:30:27;17.40;99.90
36322;DHT22;23564;48.290;11.460;2023-06-10T05:32:53;17.60;99.90
36322;DHT22;23564;48.290;11.460;2023-06-10T05:35:19;17.80;99.90
36322;DHT22;23564;48.290;11.460;2023-06-10T05:37:44;18.00;99.90
36322;DHT22;23564;48.290;11.460;2023-06-10T05:40:10;18.20;1.00
36322;DHT22;23564;48.290;11.460;2023-06-10T05:42:36;18.30;1.00
36322;DHT22;23564;48.290;11.460;2023-06-10T05:45:02;18.50;99.90
36322;DHT22;23564;48.290;11.460;2023-06-10T05:47:28;18.50;99.90
36322;DHT22;23564;48.290;11.460;2023-06-10T05:49:54;18.60;99.90
36322;DHT22;23564;48.290;11.460;2023-06-10T05:52:19;18.60;99.90
36322;DHT22;23564;48.290;11.460;2023-06-10T05:54:45;18.80;99.90
36322;DHT22;23564;48.290;11.460;2023-06-10T05:57:11;18.80;99.90
36322;DHT22;23564;48.290;11.460;2023-06-10T05:59:36;18.90;99.90
36322;DHT22;23564;48.290;11.460;2023-06-10T06:02:02;18.80;1.00
36322;DHT22;23564;48.290;11.460;2023-06-10T06:04:28;19.00;54.80
36322;DHT22;23564;48.290;11.460;2023-06-10T06:06:54;19.10;99.90
36322;DHT22;23564;48.290;11.460;2023-06-10T06:09:19;19.10;99.90
36322;DHT22;23564;48.290;11.460;2023-06-10T06:11:45;19.20;99.90
36322;DHT22;23564;48.290;11.460;2023-06-10T06:14:11;19.30;40.60
36322;DHT22;23564;48.290;11.460;2023-06-10T06:16:36;19.30;99.90
36322;DHT22;23564;48.290;11.460;2023-06-10T06:19:02;19.40;99.90
36322;DHT22;23564;48.290;11.460;2023-06-10T06:21:27;19.30;99.90
36322;DHT22;23564;48.290;11.460;2023-06-10T06:23:53;19.30;99.90
36322;DHT22;23564;48.290;11.460;2023-06-10T06:26:18;19.40;85.50
36322;DHT22;23564;48.290;11.460;2023-06-10T06:28:44;19.40;99.90
36322;DHT22;23564;48.290;11.460;2023-06-10T06:31:10;19.40;12.20
36322;DHT22;23564;48.290;11.460;2023-06-10T06:33:35;19.40;26.40
36322;DHT22;23564;48.290;11.460;2023-06-10T06:36:01;19.40;1.00
36322;DHT22;23564;48.290;11.460;2023-06-10T06:38:26;19.40;99.90
36322;DHT22;23564;48.290;11.460;2023-06-10T06:40:52;19.20;99.90
36322;DHT22;23564;48.290;11.460;2023-06-10T06:43:18;19.20;99.90
36322;DHT22;23564;48.290;11.460;2023-06-10T06:45:44;19.20;99.90
36322;DHT22;23564;48.290;11.460;2023-06-10T06:48:11;19.20;99.90
36322;DHT22;23564;48.290;11.460;2023-06-10T06:50:37;19.30;1.00
36322;DHT22;23564;48.290;11.460;2023-06-10T06:53:03;19.30;99.90
36322;DHT22;23564;48.290;11.460;2023-06-10T06:55:29;19.40;99.90
36322;DHT22;23564;48.290;11.460;2023-06-10T06:57:54;19.30;99.90
36322;DHT22;23564;48.290;11.460;2023-06-10T07:00:21;19.30;99.90
36322;DHT22;23564;48.290;11.460;2023-06-10T07:02:46;19.30;99.90
36322;DHT22;23564;48.290;11.460;2023-06-10T07:05:12;19.30;1.00
36322;DHT22;23564;48.290;11.460;2023-06-10T07:07:37;19.20;76.40
36322;DHT22;23564;48.290;11.460;2023-06-10T07:10:03;19.20;1.00
36322;DHT22;23564;48.290;11.460;2023-06-10T07:12:29;19.20;99.90
36322;DHT22;23564;48.290;11.460;2023-06-10T07:14:54;19.30;1.00
36322;DHT22;23564;48.290;11.460;2023-06-10T07:17:20;19.50;99.90
36322;DHT22;23564;48.290;11.460;2023-06-10T07:19:46;19.60;91.50
36322;DHT22;23564;48.290;11.460;2023-06-10T07:22:11;19.60;1.00
36322;DHT22;23564;48.290;11.460;2023-06-10T07:24:37;19.70;99.90
36322;DHT22;23564;48.290;11.460;2023-06-10T07:27:03;19.70;99.90
36322;DHT22;23564;48.290;11.460;2023-06-10T07:29:28;19.60;1.00
36322;DHT22;23564;48.290;11.460;2023-06-10T07:31:54;19.70;1.00
36322;DHT22;23564;48.290;11.460;2023-06-10T07:34:20;19.60;99.90
36322;DHT22;23564;48.290;11.460;2023-06-10T07:36:45;19.70;99.90
36322;DHT22;23564;48.290;11.460;2023-06-10T07:39:11;19.70;99.90
36322;DHT22;23564;48.290;11.460;2023-06-10T07:41:36;19.70;1.00
36322;DHT22;23564;48.290;11.460;2023-06-10T07:44:02;19.70;99.90
36322;DHT22;23564;48.290;11.460;2023-06-10T07:46:28;19.70;1.00
36322;DHT22;23564;48.290;11.460;2023-06-10T07:48:54;19.70;1.00
36322;DHT22;23564;48.290;11.460;2023-06-10T07:51:21;19.70;1.00
36322;DHT22;23564;48.290;11.460;2023-06-10T07:53:46;19.70;99.90
36322;DHT22;23564;48.290;11.460;2023-06-10T07:56:12;19.70;99.90
36322;DHT22;23564;48.290;11.460;2023-06-10T07:58:38;19.80;99.90
36322;DHT22;23564;48.290;11.460;2023-06-10T08:01:03;19.80;1.00
36322;DHT22;23564;48.290;11.460;2023-06-10T08:03:29;19.90;99.90
36322;DHT22;23564;48.290;11.460;2023-06-10T08:05:55;20.00;99.90
36322;DHT22;23564;48.290;11.460;2023-06-10T08:08:20;20.10;99.90
36322;DHT22;23564;48.290;11.460;2023-06-10T08:10:46;20.20;49.30
36322;DHT22;23564;48.290;11.460;2023-06-10T08:13:12;20.30;1.00
36322;DHT22;23564;48.290;11.460;2023-06-10T08:15:37;20.40;1.00
36322;DHT22;23564;48.290;11.460;2023-06-10T08:18:03;20.50;1.00
36322;DHT22;23564;48.290;11.460;2023-06-10T08:20:29;20.50;99.90
36322;DHT22;23564;48.290;11.460;2023-06-10T08:22:55;20.40;99.90
36322;DHT22;23564;48.290;11.460;2023-06-10T08:25:20;20.40;99.90
36322;DHT22;23564;48.290;11.460;2023-06-10T08:27:47;20.30;99.90
36322;DHT22;23564;48.290;11.460;2023-06-10T08:30:13;20.40;99.90
36322;DHT22;23564;48.290;11.460;2023-06-10T08:32:39;20.50;99.90
36322;DHT22;23564;48.290;11.460;2023-06-10T08:35:05;20.50;99.90
36322;DHT22;23564;48.290;11.460;2023-06-10T08:37:31;20.50;99.90
36322;DHT22;23564;48.290;11.460;2023-06-10T08:39:56;20.60;99.90
36322;DHT22;23564;48.290;11.460;2023-06-10T08:42:33;20.80;99.90
36322;DHT22;23564;48.290;11.460;2023-06-10T08:45:01;21.00;99.90
36322;DHT22;23564;48.290;11.460;2023-06-10T08:47:29;21.10;99.90
36322;DHT22;23564;48.290;11.460;2023-06-10T08:49:57;21.20;99.90
36322;DHT22;23564;48.290;11.460;2023-06-10T08:52:29;21.30;99.90
36322;DHT22;23564;48.290;11.460;2023-06-10T08:55:11;21.50;99.90
36322;DHT22;23564;48.290;11.460;2023-06-10T08:57:37;21.60;99.90
36322;DHT22;23564;48.290;11.460;2023-06-10T09:00:04;21.70;99.90
36322;DHT22;23564;48.290;11.460;2023-06-10T09:02:31;21.80;99.90
36322;DHT22;23564;48.290;11.460;2023-06-10T09:05:00;21.90;37.60
36322;DHT22;23564;48.290;11.460;2023-06-10T09:07:27;21.80;65.10
36322;DHT22;23564;48.290;11.460;2023-06-10T09:09:53;21.70;90.70
36322;DHT22;23564;48.290;11.460;2023-06-10T09:12:20;21.50;1.00
36322;DHT22;23564;48.290;11.460;2023-06-10T09:14:45;21.40;12.30
36322;DHT22;23564;48.290;11.460;2023-06-10T09:17:11;21.20;1.00
36322;DHT22;23564;48.290;11.460;2023-06-10T09:19:38;21.20;1.00
36322;DHT22;23564;48.290;11.460;2023-06-10T09:22:05;21.20;17.70
36322;DHT22;23564;48.290;11.460;2023-06-10T09:24:31;21.30;1.00
36322;DHT22;23564;48.290;11.460;2023-06-10T09:27:04;21.40;1.00
36322;DHT22;23564;48.290;11.460;2023-06-10T09:29:30;21.30;1.00
36322;DHT22;23564;48.290;11.460;2023-06-10T09:31:56;21.50;1.00
36322;DHT22;23564;48.290;11.460;2023-06-10T09:34:25;21.50;1.00
36322;DHT22;23564;48.290;11.460;2023-06-10T09:36:51;21.60;1.00
36322;DHT22;23564;48.290;11.460;2023-06-10T09:39:18;21.70;1.00
36322;DHT22;23564;48.290;11.460;2023-06-10T09:41:45;22.00;1.00
36322;DHT22;23564;48.290;11.460;2023-06-10T09:44:17;22.10;1.00
36322;DHT22;23564;48.290;11.460;2023-06-10T09:46:45;22.50;1.00
36322;DHT22;23564;48.290;11.460;2023-06-10T09:49:11;22.80;99.90
36322;DHT22;23564;48.290;11.460;2023-06-10T09:51:36;22.90;99.90
36322;DHT22;23564;48.290;11.460;2023-06-10T09:54:03;23.00;99.90
36322;DHT22;23564;48.290;11.460;2023-06-10T09:56:33;22.90;99.90
36322;DHT22;23564;48.290;11.460;2023-06-10T09:59:00;22.90;99.90
36322;DHT22;23564;48.290;11.460;2023-06-10T10:01:25;23.00;99.90
36322;DHT22;23564;48.290;11.460;2023-06-10T10:03:51;23.10;99.90
36322;DHT22;23564;48.290;11.460;2023-06-10T10:06:18;23.00;99.90
36322;DHT22;23564;48.290;11.460;2023-06-10T10:08:49;22.90;99.90
36322;DHT22;23564;48.290;11.460;2023-06-10T10:11:20;22.90;99.90
36322;DHT22;23564;48.290;11.460;2023-06-10T10:13:50;23.00;99.90
36322;DHT22;23564;48.290;11.460;2023-06-10T10:16:21;23.10;99.90
36322;DHT22;23564;48.290;11.460;2023-06-10T10:18:55;23.30;99.90
36322;DHT22;23564;48.290;11.460;2023-06-10T10:21:23;23.40;99.90
36322;DHT22;23564;48.290;11.460;2023-06-10T10:24:16;23.60;99.90
36322;DHT22;23564;48.290;11.460;2023-06-10T10:26:41;23.60;99.90
36322;DHT22;23564;48.290;11.460;2023-06-10T10:29:14;23.70;99.90
36322;DHT22;23564;48.290;11.460;2023-06-10T10:31:43;23.60;99.90
36322;DHT22;23564;48.290;11.460;2023-06-10T10:34:24;23.50;99.90
36322;DHT22;23564;48.290;11.460;2023-06-10T10:36:51;23.50;80.30
36322;DHT22;23564;48.290;11.460;2023-06-10T10:39:18;23.40;20.20
36322;DHT22;23564;48.290;11.460;2023-06-10T10:41:44;23.30;1.50
36322;DHT22;23564;48.290;11.460;2023-06-10T10:44:11;23.20;1.00
36322;DHT22;23564;48.290;11.460;2023-06-10T10:47:03;23.20;8.90
36322;DHT22;23564;48.290;11.460;2023-06-10T10:49:31;23.30;25.60
36322;DHT22;23564;48.290;11.460;2023-06-10T10:51:58;23.40;11.90
36322;DHT22;23564;48.290;11.460;2023-06-10T10:54:32;23.40;8.10
36322;DHT22;23564;48.290;11.460;2023-06-10T10:57:16;23.50;73.40
36322;DHT22;23564;48.290;11.460;2023-06-10T10:59:51;23.40;54.10
36322;DHT22;23564;48.290;11.460;2023-06-10T11:02:44;23.50;8.90
36322;DHT22;23564;48.290;11.460;2023-06-10T11:05:15;23.30;9.80
36322;DHT22;23564;48.290;11.460;2023-06-10T11:07:52;23.30;22.70
36322;DHT22;23564;48.290;11.460;2023-06-10T11:10:19;23.50;17.50
36322;DHT22;23564;48.290;11.460;2023-06-10T11:12:54;23.50;1.00
36322;DHT22;23564;48.290;11.460;2023-06-10T11:15:24;23.50;1.00
36322;DHT22;23564;48.290;11.460;2023-06-10T11:23:25;23.00;1.00
36322;DHT22;23564;48.290;11.460;2023-06-10T11:25:51;22.80;1.00
36322;DHT22;23564;48.290;11.460;2023-06-10T11:28:19;22.70;1.00
36322;DHT22;23564;48.290;11.460;2023-06-10T11:30:46;22.70;1.00
36322;DHT22;23564;48.290;11.460;2023-06-10T11:33:16;22.80;1.00
36322;DHT22;23564;48.290;11.460;2023-06-10T11:35:43;22.90;1.00
36322;DHT22;23564;48.290;11.460;2023-06-10T11:38:09;22.90;1.00
36322;DHT22;23564;48.290;11.460;2023-06-10T11:40:36;23.00;1.00
36322;DHT22;23564;48.290;11.460;2023-06-10T11:43:04;23.20;1.00
36322;DHT22;23564;48.290;11.460;2023-06-10T11:45:30;23.30;1.00
36322;DHT22;23564;48.290;11.460;2023-06-10T11:47:56;23.40;1.00
36322;DHT22;23564;48.290;11.460;2023-06-10T11:50:32;23.50;1.00
36322;DHT22;23564;48.290;11.460;2023-06-10T11:52:59;23.60;1.70
36322;DHT22;23564;48.290;11.460;2023-06-10T11:55:44;23.50;1.00
36322;DHT22;23564;48.290;11.460;2023-06-10T11:58:20;23.50;1.00
36322;DHT22;23564;48.290;11.460;2023-06-10T12:00:50;23.30;1.00
36322;DHT22;23564;48.290;11.460;2023-06-10T12:03:17;23.20;1.00
36322;DHT22;23564;48.290;11.460;2023-06-10T12:05:59;23.00;1.00
36322;DHT22;23564;48.290;11.460;2023-06-10T12:08:25;22.90;1.00
36322;DHT22;23564;48.290;11.460;2023-06-10T12:10:51;22.90;1.00
36322;DHT22;23564;48.290;11.460;2023-06-10T12:13:17;23.00;1.00
36322;DHT22;23564;48.290;11.460;2023-06-10T12:15:46;23.10;1.00
36322;DHT22;23564;48.290;11.460;2023-06-10T12:18:24;23.00;1.00
36322;DHT22;23564;48.290;11.460;2023-06-10T12:20:50;23.00;1.00
36322;DHT22;23564;48.290;11.460;2023-06-10T12:23:17;23.00;1.00
36322;DHT22;23564;48.290;11.460;2023-06-10T12:25:55;23.10;1.00
36322;DHT22;23564;48.290;11.460;2023-06-10T12:28:22;23.10;1.00
36322;DHT22;23564;48.290;11.460;2023-06-10T12:30:48;23.10;1.00
36322;DHT22;23564;48.290;11.460;2023-06-10T12:33:21;23.00;1.00
36322;DHT22;23564;48.290;11.460;2023-06-10T12:35:51;23.00;1.00
36322;DHT22;23564;48.290;11.460;2023-06-10T12:38:26;23.20;1.00
36322;DHT22;23564;48.290;11.460;2023-06-10T12:41:01;23.30;1.00
36322;DHT22;23564;48.290;11.460;2023-06-10T12:43:31;23.40;1.00
36322;DHT22;23564;48.290;11.460;2023-06-10T12:46:08;23.40;1.00
36322;DHT22;23564;48.290;11.460;2023-06-10T12:48:34;23.50;1.00
36322;DHT22;23564;48.290;11.460;2023-06-10T12:51:01;23.60;1.00
36322;DHT22;23564;48.290;11.460;2023-06-10T12:53:26;23.70;1.00
36322;DHT22;23564;48.290;11.460;2023-06-10T12:55:52;23.70;1.00
36322;DHT22;23564;48.290;11.460;2023-06-10T12:58:22;23.80;1.00
36322;DHT22;23564;48.290;11.460;2023-06-10T13:00:47;23.70;1.00
36322;DHT22;23564;48.290;11.460;2023-06-10T13:03:14;23.70;1.00
36322;DHT22;23564;48.290;11.460;2023-06-10T13:05:40;23.80;1.00
36322;DHT22;23564;48.290;11.460;2023-06-10T13:08:06;23.80;1.00
36322;DHT22;23564;48.290;11.460;2023-06-10T13:10:32;24.00;1.00
36322;DHT22;23564;48.290;11.460;2023-06-10T13:13:00;24.20;1.00
36322;DHT22;23564;48.290;11.460;2023-06-10T13:15:25;24.20;1.00
36322;DHT22;23564;48.290;11.460;2023-06-10T13:17:52;24.10;1.00
36322;DHT22;23564;48.290;11.460;2023-06-10T13:20:18;24.00;1.00
36322;DHT22;23564;48.290;11.460;2023-06-10T13:22:44;23.90;1.00
36322;DHT22;23564;48.290;11.460;2023-06-10T13:25:10;23.80;1.00
36322;DHT22;23564;48.290;11.460;2023-06-10T13:27:36;23.80;1.00
36322;DHT22;23564;48.290;11.460;2023-06-10T13:30:09;23.80;1.00
36322;DHT22;23564;48.290;11.460;2023-06-10T13:32:35;23.80;1.00
36322;DHT22;23564;48.290;11.460;2023-06-10T13:35:01;23.70;1.00
36322;DHT22;23564;48.290;11.460;2023-06-10T13:37:28;23.80;1.00
36322;DHT22;23564;48.290;11.460;2023-06-10T13:39:53;23.90;1.00
36322;DHT22;23564;48.290;11.460;2023-06-10T13:42:20;23.90;1.00
36322;DHT22;23564;48.290;11.460;2023-06-10T13:44:46;24.00;1.00
36322;DHT22;23564;48.290;11.460;2023-06-10T13:47:13;24.10;1.00
36322;DHT22;23564;48.290;11.460;2023-06-10T13:49:38;24.10;1.00
36322;DHT22;23564;48.290;11.460;2023-06-10T13:52:04;24.20;1.00
36322;DHT22;23564;48.290;11.460;2023-06-10T13:54:30;24.30;1.00
36322;DHT22;23564;48.290;11.460;2023-06-10T13:56:55;24.20;99.90
36322;DHT22;23564;48.290;11.460;2023-06-10T13:59:21;24.10;1.00
36322;DHT22;23564;48.290;11.460;2023-06-10T14:01:47;24.20;1.00
36322;DHT22;23564;48.290;11.460;2023-06-10T14:04:12;24.20;99.90
36322;DHT22;23564;48.290;11.460;2023-06-10T14:06:38;24.20;1.00
36322;DHT22;23564;48.290;11.460;2023-06-10T14:09:04;24.10;1.00
36322;DHT22;23564;48.290;11.460;2023-06-10T14:11:30;24.20;1.00
36322;DHT22;23564;48.290;11.460;2023-06-10T14:13:56;24.20;1.00
36322;DHT22;23564;48.290;11.460;2023-06-10T14:16:23;24.30;99.90
36322;DHT22;23564;48.290;11.460;2023-06-10T14:18:49;24.30;99.90
36322;DHT22;23564;48.290;11.460;2023-06-10T14:21:18;24.30;99.90
36322;DHT22;23564;48.290;11.460;2023-06-10T14:23:43;24.30;99.90
36322;DHT22;23564;48.290;11.460;2023-06-10T14:26:09;24.40;99.90
36322;DHT22;23564;48.290;11.460;2023-06-10T14:28:35;24.50;99.90
36322;DHT22;23564;48.290;11.460;2023-06-10T14:31:01;24.70;99.90
36322;DHT22;23564;48.290;11.460;2023-06-10T14:33:26;24.90;99.90
36322;DHT22;23564;48.290;11.460;2023-06-10T14:35:52;25.20;99.90
36322;DHT22;23564;48.290;11.460;2023-06-10T14:38:18;25.40;99.90
36322;DHT22;23564;48.290;11.460;2023-06-10T14:40:44;25.40;99.90
36322;DHT22;23564;48.290;11.460;2023-06-10T14:43:09;25.50;99.90
36322;DHT22;23564;48.290;11.460;2023-06-10T14:45:39;25.50;99.90
36322;DHT22;23564;48.290;11.460;2023-06-10T14:48:06;25.50;99.90
36322;DHT22;23564;48.290;11.460;2023-06-10T14:50:32;25.50;99.90
36322;DHT22;23564;48.290;11.460;2023-06-10T14:52:58;25.40;99.90
36322;DHT22;23564;48.290;11.460;2023-06-10T14:55:24;25.50;99.90
36322;DHT22;23564;48.290;11.460;2023-06-10T14:57:50;25.70;99.90
36322;DHT22;23564;48.290;11.460;2023-06-10T15:00:15;25.70;99.90
36322;DHT22;23564;48.290;11.460;2023-06-10T15:02:45;25.70;99.90
36322;DHT22;23564;48.290;11.460;2023-06-10T15:05:13;25.80;1.00
36322;DHT22;23564;48.290;11.460;2023-06-10T15:07:40;26.00;1.00
36322;DHT22;23564;48.290;11.460;2023-06-10T15:10:06;26.30;1.00
36322;DHT22;23564;48.290;11.460;2023-06-10T15:12:32;26.50;1.00
36322;DHT22;23564;48.290;11.460;2023-06-10T15:14:57;26.50;1.00
36322;DHT22;23564;48.290;11.460;2023-06-10T15:17:23;26.80;1.00
36322;DHT22;23564;48.290;11.460;2023-06-10T15:19:48;27.10;1.00
36322;DHT22;23564;48.290;11.460;2023-06-10T15:22:14;27.30;1.00
36322;DHT22;23564;48.290;11.460;2023-06-10T15:24:39;27.10;99.90
36322;DHT22;23564;48.290;11.460;2023-06-10T15:27:05;27.00;99.90